sensor_id;sensor_type;location;lat;lon;timestamp;pressure;altitude;pressure_sealevel;temperature;humidity
50123;BME280;36021;48.670;6.184;2022-11-15T00:01:28;98674.72;;;11.57;100.00
50123;BME280;36021;48.670;6.184;2022-11-15T00:04:12;98674.09;;;11.60;100.00
50123;BME280;36021;48.670;6.184;2022-11-15T00:06:57;98670.22;;;11.61;100.00
50123;BME280;36021;48.670;6.184;2022-11-15T00:09:41;98680.13;;;11.62;100.00
50123;BME280;36021;48.670;6.184;2022-11-15T00:12:27;98675.41;;;11.62;100.00
50123;BME280;36021;48.670;6.184;2022-11-15T00:15:11;98677.78;;;11.55;100.00
50123;BME280;36021;48.670;6.184;2022-11-15T00:17:58;98677.00;;;11.55;100.00
50123;BME280;36021;48.670;6.184;2022-11-15T00:20:42;98675.56;;;11.57;100.00
50123;BME280;36021;48.670;6.184;2022-11-15T00:23:27;98676.47;;;11.52;100.00
50123;BME280;36021;48.670;6.184;2022-11-15T00:26:14;98684.44;;;11.54;100.00
50123;BME280;36021;48.670;6.184;2022-11-15T00:28:58;98674.53;;;11.53;100.00
50123;BME280;36021;48.670;6.184;2022-11-15T00:31:42;98679.63;;;11.60;100.00
50123;BME280;36021;48.670;6.184;2022-11-15T00:34:26;98679.00;;;11.63;100.00
50123;BME280;36021;48.670;6.184;2022-11-15T00:37:11;98687.81;;;11.65;100.00
50123;BME280;36021;48.670;6.184;2022-11-15T00:39:55;98683.09;;;11.65;100.00
50123;BME280;36021;48.670;6.184;2022-11-15T00:42:39;98676.78;;;11.65;100.00
50123;BME280;36021;48.670;6.184;2022-11-15T00:45:25;98678.50;;;11.74;100.00
50123;BME280;36021;48.670;6.184;2022-11-15T00:48:09;98678.19;;;11.76;100.00
50123;BME280;36021;48.670;6.184;2022-11-15T00:50:54;98674.94;;;11.74;100.00
50123;BME280;36021;48.670;6.184;2022-11-15T00:53:38;98669.19;;;11.84;100.00
50123;BME280;36021;48.670;6.184;2022-11-15T00:56:23;98671.22;;;11.78;100.00
50123;BME280;36021;48.670;6.184;2022-11-15T00:59:08;98663.66;;;11.84;100.00
50123;BME280;36021;48.670;6.184;2022-11-15T01:01:52;98659.94;;;11.88;100.00
50123;BME280;36021;48.670;6.184;2022-11-15T01:04:36;98663.13;;;11.82;100.00
50123;BME280;36021;48.670;6.184;2022-11-15T01:07:21;98659.13;;;11.88;100.00
50123;BME280;36021;48.670;6.184;2022-11-15T01:10:05;98652.81;;;11.87;100.00
50123;BME280;36021;48.670;6.184;2022-11-15T01:12:51;98653.50;;;11.93;100.00
50123;BME280;36021;48.670;6.184;2022-11-15T01:15:39;98654.59;;;11.92;100.00
50123;BME280;36021;48.670;6.184;2022-11-15T01:18:25;98652.56;;;11.97;100.00
50123;BME280;36021;48.670;6.184;2022-11-15T01:21:15;98653.34;;;11.98;100.00
50123;BME280;36021;48.670;6.184;2022-11-15T01:23:59;98658.63;;;12.08;100.00
50123;BME280;36021;48.670;6.184;2022-11-15T01:26:44;98652.00;;;12.09;100.00
50123;BME280;36021;48.670;6.184;2022-11-15T01:29:28;98646.66;;;12.13;100.00
50123;BME280;36021;48.670;6.184;2022-11-15T01:32:12;98645.34;;;12.10;100.00
50123;BME280;36021;48.670;6.184;2022-11-15T01:34:56;98636.09;;;12.15;100.00
50123;BME280;36021;48.670;6.184;2022-11-15T01:37:40;98635.84;;;12.02;100.00
50123;BME280;36021;48.670;6.184;2022-11-15T01:40:25;98638.44;;;11.99;100.00
50123;BME280;36021;48.670;6.184;2022-11-15T01:43:29;98640.38;;;11.98;100.00
50123;BME280;36021;48.670;6.184;2022-11-15T01:49:19;98638.47;;;11.85;100.00
50123;BME280;36021;48.670;6.184;2022-11-15T01:52:07;98641.94;;;11.91;100.00
50123;BME280;36021;48.670;6.184;2022-11-15T01:55:09;98646.84;;;11.94;100.00
50123;BME280;36021;48.670;6.184;2022-11-15T01:57:59;98644.09;;;11.94;100.00
50123;BME280;36021;48.670;6.184;2022-11-15T02:00:46;98635.91;;;11.89;100.00
50123;BME280;36021;48.670;6.184;2022-11-15T02:03:38;98630.72;;;11.87;100.00
50123;BME280;36021;48.670;6.184;2022-11-15T02:06:25;98628.06;;;11.82;100.00
50123;BME280;36021;48.670;6.184;2022-11-15T02:09:10;98624.00;;;11.66;100.00
50123;BME280;36021;48.670;6.184;2022-11-15T02:11:55;98622.34;;;11.65;100.00
50123;BME280;36021;48.670;6.184;2022-11-15T02:14:42;98625.06;;;11.57;100.00
50123;BME280;36021;48.670;6.184;2022-11-15T02:20:46;98622.41;;;11.52;100.00
50123;BME280;36021;48.670;6.184;2022-11-15T02:32:25;98608.75;;;11.33;100.00
50123;BME280;36021;48.670;6.184;2022-11-15T02:35:30;98604.69;;;11.30;100.00
50123;BME280;36021;48.670;6.184;2022-11-15T02:41:30;98596.81;;;11.24;100.00
50123;BME280;36021;48.670;6.184;2022-11-15T02:44:32;98590.00;;;11.21;100.00
50123;BME280;36021;48.670;6.184;2022-11-15T02:47:17;98588.13;;;11.30;100.00
50123;BME280;36021;48.670;6.184;2022-11-15T02:50:06;98589.84;;;11.26;100.00
50123;BME280;36021;48.670;6.184;2022-11-15T02:52:52;98578.84;;;11.13;100.00
50123;BME280;36021;48.670;6.184;2022-11-15T02:55:38;98577.44;;;11.15;100.00
50123;BME280;36021;48.670;6.184;2022-11-15T02:58:55;98569.25;;;11.10;100.00
50123;BME280;36021;48.670;6.184;2022-11-15T03:11:03;98567.44;;;11.06;100.00
50123;BME280;36021;48.670;6.184;2022-11-15T03:20:09;98568.56;;;11.05;100.00
50123;BME280;36021;48.670;6.184;2022-11-15T03:23:00;98562.72;;;11.06;100.00
50123;BME280;36021;48.670;6.184;2022-11-15T03:25:48;98550.38;;;11.04;100.00
50123;BME280;36021;48.670;6.184;2022-11-15T03:28:42;98554.28;;;11.03;100.00
50123;BME280;36021;48.670;6.184;2022-11-15T03:31:31;98569.38;;;11.05;100.00
50123;BME280;36021;48.670;6.184;2022-11-15T03:37:34;98561.72;;;11.02;100.00
50123;BME280;36021;48.670;6.184;2022-11-15T03:40:25;98566.50;;;11.10;100.00
50123;BME280;36021;48.670;6.184;2022-11-15T03:43:24;98561.22;;;11.00;100.00
50123;BME280;36021;48.670;6.184;2022-11-15T03:46:14;98563.34;;;11.03;100.00
50123;BME280;36021;48.670;6.184;2022-11-15T03:49:16;98557.94;;;11.12;100.00
50123;BME280;36021;48.670;6.184;2022-11-15T03:52:04;98556.69;;;11.18;100.00
50123;BME280;36021;48.670;6.184;2022-11-15T03:54:53;98561.72;;;11.16;100.00
50123;BME280;36021;48.670;6.184;2022-11-15T03:57:38;98551.78;;;11.15;100.00
50123;BME280;36021;48.670;6.184;2022-11-15T04:00:23;98561.13;;;11.05;100.00
50123;BME280;36021;48.670;6.184;2022-11-15T04:03:07;98557.53;;;11.05;100.00
50123;BME280;36021;48.670;6.184;2022-11-15T04:05:51;98549.75;;;11.07;100.00
50123;BME280;36021;48.670;6.184;2022-11-15T04:08:35;98558.44;;;11.00;100.00
50123;BME280;36021;48.670;6.184;2022-11-15T04:11:19;98557.34;;;11.01;100.00
50123;BME280;36021;48.670;6.184;2022-11-15T04:14:05;98552.44;;;10.98;100.00
50123;BME280;36021;48.670;6.184;2022-11-15T04:16:50;98550.41;;;10.90;100.00
50123;BME280;36021;48.670;6.184;2022-11-15T04:19:34;98554.38;;;10.97;100.00
50123;BME280;36021;48.670;6.184;2022-11-15T04:22:37;98550.19;;;11.00;100.00
50123;BME280;36021;48.670;6.184;2022-11-15T04:25:52;98547.53;;;11.09;100.00
50123;BME280;36021;48.670;6.184;2022-11-15T04:28:37;98549.13;;;11.10;100.00
50123;BME280;36021;48.670;6.184;2022-11-15T04:31:43;98546.09;;;11.11;100.00
50123;BME280;36021;48.670;6.184;2022-11-15T04:34:27;98532.91;;;11.08;100.00
50123;BME280;36021;48.670;6.184;2022-11-15T04:37:11;98546.19;;;11.06;100.00
50123;BME280;36021;48.670;6.184;2022-11-15T04:39:56;98546.69;;;11.08;100.00
50123;BME280;36021;48.670;6.184;2022-11-15T04:42:41;98533.53;;;11.05;100.00
50123;BME280;36021;48.670;6.184;2022-11-15T04:45:26;98530.78;;;11.05;100.00
50123;BME280;36021;48.670;6.184;2022-11-15T04:48:10;98540.16;;;11.04;100.00
50123;BME280;36021;48.670;6.184;2022-11-15T04:50:54;98532.28;;;11.11;100.00
50123;BME280;36021;48.670;6.184;2022-11-15T04:53:38;98541.00;;;11.05;100.00
50123;BME280;36021;48.670;6.184;2022-11-15T04:56:22;98530.78;;;11.05;100.00
50123;BME280;36021;48.670;6.184;2022-11-15T04:59:06;98530.16;;;11.08;100.00
50123;BME280;36021;48.670;6.184;2022-11-15T05:01:51;98532.91;;;11.08;100.00
50123;BME280;36021;48.670;6.184;2022-11-15T05:04:35;98529.63;;;11.06;100.00
50123;BME280;36021;48.670;6.184;2022-11-15T05:07:19;98526.78;;;11.11;100.00
50123;BME280;36021;48.670;6.184;2022-11-15T05:10:04;98531.81;;;11.09;100.00
50123;BME280;36021;48.670;6.184;2022-11-15T05:12:48;98530.34;;;11.12;100.00
50123;BME280;36021;48.670;6.184;2022-11-15T05:15:33;98524.22;;;11.15;100.00
50123;BME280;36021;48.670;6.184;2022-11-15T05:18:17;98531.53;;;11.19;100.00
50123;BME280;36021;48.670;6.184;2022-11-15T05:21:08;98526.03;;;11.19;100.00
50123;BME280;36021;48.670;6.184;2022-11-15T05:23:52;98524.41;;;11.18;100.00
50123;BME280;36021;48.670;6.184;2022-11-15T05:26:37;98526.16;;;11.14;100.00
50123;BME280;36021;48.670;6.184;2022-11-15T05:29:21;98523.88;;;11.16;100.00
50123;BME280;36021;48.670;6.184;2022-11-15T05:32:06;98526.34;;;11.18;100.00
50123;BME280;36021;48.670;6.184;2022-11-15T05:34:52;98526.03;;;11.19;100.00
50123;BME280;36021;48.670;6.184;2022-11-15T05:37:36;98516.81;;;11.24;100.00
50123;BME280;36021;48.670;6.184;2022-11-15T05:40:20;98522.78;;;11.17;100.00
50123;BME280;36021;48.670;6.184;2022-11-15T05:43:05;98511.94;;;11.21;100.00
50123;BME280;36021;48.670;6.184;2022-11-15T05:45:50;98509.66;;;11.23;100.00
50123;BME280;36021;48.670;6.184;2022-11-15T05:48:36;98510.50;;;11.23;100.00
50123;BME280;36021;48.670;6.184;2022-11-15T05:51:22;98512.38;;;11.14;100.00
50123;BME280;36021;48.670;6.184;2022-11-15T05:54:07;98506.84;;;11.14;100.00
50123;BME280;36021;48.670;6.184;2022-11-15T05:56:51;98513.59;;;11.08;100.00
50123;BME280;36021;48.670;6.184;2022-11-15T05:59:36;98509.72;;;11.09;100.00
50123;BME280;36021;48.670;6.184;2022-11-15T06:02:20;98506.97;;;11.09;100.00
50123;BME280;36021;48.670;6.184;2022-11-15T06:05:05;98502.06;;;11.06;100.00
50123;BME280;36021;48.670;6.184;2022-11-15T06:07:49;98505.84;;;11.10;100.00
50123;BME280;36021;48.670;6.184;2022-11-15T06:10:33;98502.88;;;11.07;100.00
50123;BME280;36021;48.670;6.184;2022-11-15T06:13:18;98501.13;;;11.11;100.00
50123;BME280;36021;48.670;6.184;2022-11-15T06:16:02;98499.28;;;11.06;100.00
50123;BME280;36021;48.670;6.184;2022-11-15T06:18:46;98504.31;;;11.04;100.00
50123;BME280;36021;48.670;6.184;2022-11-15T06:21:30;98496.19;;;10.99;100.00
50123;BME280;36021;48.670;6.184;2022-11-15T06:24:14;98504.69;;;10.89;100.00
50123;BME280;36021;48.670;6.184;2022-11-15T06:26:58;98505.66;;;10.93;100.00
50123;BME280;36021;48.670;6.184;2022-11-15T06:29:43;98507.31;;;10.94;100.00
50123;BME280;36021;48.670;6.184;2022-11-15T06:32:29;98501.59;;;10.90;100.00
50123;BME280;36021;48.670;6.184;2022-11-15T06:35:14;98510.69;;;10.77;100.00
50123;BME280;36021;48.670;6.184;2022-11-15T06:38:03;98497.34;;;10.71;100.00
50123;BME280;36021;48.670;6.184;2022-11-15T06:40:48;98500.09;;;10.57;100.00
50123;BME280;36021;48.670;6.184;2022-11-15T06:43:33;98492.97;;;10.56;100.00
50123;BME280;36021;48.670;6.184;2022-11-15T06:46:17;98491.63;;;10.54;100.00
50123;BME280;36021;48.670;6.184;2022-11-15T06:49:01;98497.97;;;10.54;100.00
50123;BME280;36021;48.670;6.184;2022-11-15T06:51:46;98498.38;;;10.61;100.00
50123;BME280;36021;48.670;6.184;2022-11-15T06:54:30;98507.47;;;10.62;100.00
50123;BME280;36021;48.670;6.184;2022-11-15T06:57:15;98506.84;;;10.65;100.00
50123;BME280;36021;48.670;6.184;2022-11-15T07:00:00;98506.84;;;10.65;100.00
50123;BME280;36021;48.670;6.184;2022-11-15T07:02:46;98508.97;;;10.68;100.00
50123;BME280;36021;48.670;6.184;2022-11-15T07:05:30;98507.03;;;10.68;100.00
50123;BME280;36021;48.670;6.184;2022-11-15T07:08:15;98513.88;;;10.71;100.00
50123;BME280;36021;48.670;6.184;2022-11-15T07:11:04;98507.75;;;10.74;100.00
50123;BME280;36021;48.670;6.184;2022-11-15T07:13:49;98515.09;;;10.78;100.00
50123;BME280;36021;48.670;6.184;2022-11-15T07:16:33;98510.41;;;10.79;100.00
50123;BME280;36021;48.670;6.184;2022-11-15T07:19:18;98503.56;;;10.76;100.00
50123;BME280;36021;48.670;6.184;2022-11-15T07:22:02;98503.25;;;10.78;100.00
50123;BME280;36021;48.670;6.184;2022-11-15T07:24:46;98507.31;;;10.80;100.00
50123;BME280;36021;48.670;6.184;2022-11-15T07:27:30;98513.66;;;10.81;100.00
50123;BME280;36021;48.670;6.184;2022-11-15T07:30:15;98510.41;;;10.79;100.00
50123;BME280;36021;48.670;6.184;2022-11-15T07:33:00;98494.88;;;10.83;100.00
50123;BME280;36021;48.670;6.184;2022-11-15T07:35:44;98494.88;;;10.83;100.00
50123;BME280;36021;48.670;6.184;2022-11-15T07:38:33;98505.09;;;10.82;100.00
50123;BME280;36021;48.670;6.184;2022-11-15T07:41:17;98495.25;;;10.90;100.00
50123;BME280;36021;48.670;6.184;2022-11-15T07:44:01;98494.13;;;10.91;100.00
50123;BME280;36021;48.670;6.184;2022-11-15T07:46:45;98499.56;;;10.96;100.00
50123;BME280;36021;48.670;6.184;2022-11-15T07:49:30;98490.34;;;11.01;100.00
50123;BME280;36021;48.670;6.184;2022-11-15T07:52:14;98491.78;;;10.98;100.00
50123;BME280;36021;48.670;6.184;2022-11-15T07:54:58;98494.41;;;11.03;100.00
50123;BME280;36021;48.670;6.184;2022-11-15T07:57:42;98498.38;;;11.11;100.00
50123;BME280;36021;48.670;6.184;2022-11-15T08:00:27;98500.31;;;11.10;100.00
50123;BME280;36021;48.670;6.184;2022-11-15T08:03:13;98504.59;;;11.16;100.00
50123;BME280;36021;48.670;6.184;2022-11-15T08:05:58;98503.03;;;11.24;100.00
50123;BME280;36021;48.670;6.184;2022-11-15T08:08:42;98502.75;;;11.25;100.00
50123;BME280;36021;48.670;6.184;2022-11-15T08:11:27;98499.53;;;11.32;100.00
50123;BME280;36021;48.670;6.184;2022-11-15T08:14:11;98491.19;;;11.23;100.00
50123;BME280;36021;48.670;6.184;2022-11-15T08:16:57;98490.69;;;11.21;100.00
50123;BME280;36021;48.670;6.184;2022-11-15T08:19:41;98488.22;;;11.20;100.00
50123;BME280;36021;48.670;6.184;2022-11-15T08:22:25;98486.19;;;11.25;100.00
50123;BME280;36021;48.670;6.184;2022-11-15T08:25:10;98483.00;;;11.32;100.00
50123;BME280;36021;48.670;6.184;2022-11-15T08:27:59;98479.59;;;11.35;100.00
50123;BME280;36021;48.670;6.184;2022-11-15T08:30:44;98471.00;;;11.36;100.00
50123;BME280;36021;48.670;6.184;2022-11-15T08:33:30;98474.53;;;11.28;100.00
50123;BME280;36021;48.670;6.184;2022-11-15T08:36:16;98477.97;;;11.34;100.00
50123;BME280;36021;48.670;6.184;2022-11-15T08:39:00;98464.22;;;11.42;100.00
50123;BME280;36021;48.670;6.184;2022-11-15T08:41:44;98454.00;;;11.43;100.00
50123;BME280;36021;48.670;6.184;2022-11-15T08:44:28;98448.28;;;11.39;100.00
50123;BME280;36021;48.670;6.184;2022-11-15T08:47:13;98441.47;;;11.37;100.00
50123;BME280;36021;48.670;6.184;2022-11-15T08:50:00;98446.53;;;11.43;100.00
50123;BME280;36021;48.670;6.184;2022-11-15T08:52:44;98441.03;;;11.43;100.00
50123;BME280;36021;48.670;6.184;2022-11-15T08:55:29;98447.03;;;11.45;100.00
50123;BME280;36021;48.670;6.184;2022-11-15T08:58:14;98441.03;;;11.43;100.00
50123;BME280;36021;48.670;6.184;2022-11-15T09:00:58;98438.19;;;11.57;100.00
50123;BME280;36021;48.670;6.184;2022-11-15T09:03:44;98428.94;;;11.62;100.00
50123;BME280;36021;48.670;6.184;2022-11-15T09:06:28;98436.06;;;11.76;100.00
50123;BME280;36021;48.670;6.184;2022-11-15T09:09:12;98414.78;;;11.77;100.00
50123;BME280;36021;48.670;6.184;2022-11-15T09:11:57;98424.56;;;11.83;100.00
50123;BME280;36021;48.670;6.184;2022-11-15T09:14:42;98421.38;;;11.98;100.00
50123;BME280;36021;48.670;6.184;2022-11-15T09:17:26;98420.31;;;11.77;100.00
50123;BME280;36021;48.670;6.184;2022-11-15T09:20:10;98421.94;;;11.78;100.00
50123;BME280;36021;48.670;6.184;2022-11-15T09:22:55;98415.22;;;12.01;100.00
50123;BME280;36021;48.670;6.184;2022-11-15T09:25:42;98419.44;;;11.98;100.00
50123;BME280;36021;48.670;6.184;2022-11-15T09:28:27;98410.31;;;11.98;100.00
50123;BME280;36021;48.670;6.184;2022-11-15T09:31:12;98404.63;;;11.94;100.00
50123;BME280;36021;48.670;6.184;2022-11-15T09:33:56;98406.91;;;12.01;100.00
50123;BME280;36021;48.670;6.184;2022-11-15T09:36:40;98409.28;;;12.16;100.00
50123;BME280;36021;48.670;6.184;2022-11-15T09:39:25;98400.88;;;12.30;100.00
50123;BME280;36021;48.670;6.184;2022-11-15T09:45:31;98390.66;;;12.56;100.00
50123;BME280;36021;48.670;6.184;2022-11-15T09:51:45;98390.69;;;12.90;100.00
50123;BME280;36021;48.670;6.184;2022-11-15T09:56:46;98392.97;;;12.88;100.00
50123;BME280;36021;48.670;6.184;2022-11-15T10:04:15;98394.25;;;13.25;100.00
50123;BME280;36021;48.670;6.184;2022-11-15T10:06:46;98386.13;;;13.37;100.00
50123;BME280;36021;48.670;6.184;2022-11-15T10:09:39;98381.56;;;13.41;100.00
50123;BME280;36021;48.670;6.184;2022-11-15T10:12:09;98373.41;;;13.36;100.00
50123;BME280;36021;48.670;6.184;2022-11-15T10:14:36;98361.31;;;13.49;100.00
50123;BME280;36021;48.670;6.184;2022-11-15T10:17:18;98366.69;;;13.54;100.00
50123;BME280;36021;48.670;6.184;2022-11-15T10:20:10;98355.91;;;13.70;100.00
50123;BME280;36021;48.670;6.184;2022-11-15T10:22:45;98352.91;;;13.84;100.00
50123;BME280;36021;48.670;6.184;2022-11-15T10:25:26;98348.31;;;14.17;100.00
50123;BME280;36021;48.670;6.184;2022-11-15T10:27:58;98329.75;;;14.68;100.00
50123;BME280;36021;48.670;6.184;2022-11-15T10:30:31;98317.53;;;15.01;100.00
50123;BME280;36021;48.670;6.184;2022-11-15T10:32:57;98320.50;;;14.96;100.00
50123;BME280;36021;48.670;6.184;2022-11-15T10:35:28;98305.94;;;14.99;100.00
50123;BME280;36021;48.670;6.184;2022-11-15T10:38:05;98324.66;;;14.70;100.00
50123;BME280;36021;48.670;6.184;2022-11-15T10:40:31;98312.03;;;14.39;100.00
50123;BME280;36021;48.670;6.184;2022-11-15T10:45:32;98314.53;;;14.24;100.00
50123;BME280;36021;48.670;6.184;2022-11-15T10:48:22;98310.03;;;13.90;100.00
50123;BME280;36021;48.670;6.184;2022-11-15T10:50:50;98303.91;;;13.76;100.00
50123;BME280;36021;48.670;6.184;2022-11-15T10:55:48;98296.16;;;13.61;100.00
50123;BME280;36021;48.670;6.184;2022-11-15T11:00:53;98270.66;;;13.76;100.00
50123;BME280;36021;48.670;6.184;2022-11-15T11:03:38;98274.47;;;13.92;100.00
50123;BME280;36021;48.670;6.184;2022-11-15T11:06:09;98261.75;;;13.91;100.00
50123;BME280;36021;48.670;6.184;2022-11-15T11:08:35;98261.91;;;13.94;100.00
50123;BME280;36021;48.670;6.184;2022-11-15T11:11:03;98252.22;;;14.09;100.00
50123;BME280;36021;48.670;6.184;2022-11-15T11:13:36;98243.16;;;14.00;100.00
50123;BME280;36021;48.670;6.184;2022-11-15T11:21:51;98226.53;;;14.00;100.00
50123;BME280;36021;48.670;6.184;2022-11-15T11:33:00;98179.84;;;14.64;100.00
50123;BME280;36021;48.670;6.184;2022-11-15T11:35:51;98168.63;;;14.73;100.00
50123;BME280;36021;48.670;6.184;2022-11-15T11:48:48;98146.50;;;14.85;100.00
50123;BME280;36021;48.670;6.184;2022-11-15T11:52:19;98154.09;;;14.76;100.00
50123;BME280;36021;48.670;6.184;2022-11-15T11:54:20;98143.69;;;14.73;100.00
50123;BME280;36021;48.670;6.184;2022-11-15T11:56:50;98152.63;;;14.78;100.00
50123;BME280;36021;48.670;6.184;2022-11-15T11:59:37;98146.69;;;14.68;100.00
50123;BME280;36021;48.670;6.184;2022-11-15T12:02:11;98142.94;;;14.51;100.00
50123;BME280;36021;48.670;6.184;2022-11-15T12:04:43;98146.44;;;14.60;100.00
50123;BME280;36021;48.670;6.184;2022-11-15T12:07:16;98141.50;;;14.78;100.00
50123;BME280;36021;48.670;6.184;2022-11-15T12:09:51;98144.66;;;15.01;100.00
50123;BME280;36021;48.670;6.184;2022-11-15T12:12:31;98130.44;;;15.02;100.00
50123;BME280;36021;48.670;6.184;2022-11-15T12:17:36;98117.38;;;15.15;100.00
50123;BME280;36021;48.670;6.184;2022-11-15T12:20:06;98109.97;;;15.31;100.00
50123;BME280;36021;48.670;6.184;2022-11-15T12:22:59;98101.41;;;15.48;100.00
50123;BME280;36021;48.670;6.184;2022-11-15T12:25:35;98093.25;;;15.80;100.00
50123;BME280;36021;48.670;6.184;2022-11-15T12:28:12;98086.16;;;16.22;100.00
50123;BME280;36021;48.670;6.184;2022-11-15T12:33:33;98076.53;;;15.52;100.00
50123;BME280;36021;48.670;6.184;2022-11-15T12:38:58;98075.75;;;15.27;100.00
50123;BME280;36021;48.670;6.184;2022-11-15T12:41:29;98066.69;;;15.42;100.00
50123;BME280;36021;48.670;6.184;2022-11-15T12:43:56;98068.91;;;15.37;100.00
50123;BME280;36021;48.670;6.184;2022-11-15T12:46:26;98048.75;;;15.40;100.00
50123;BME280;36021;48.670;6.184;2022-11-15T12:52:06;98047.97;;;15.15;100.00
50123;BME280;36021;48.670;6.184;2022-11-15T12:59:59;98023.91;;;15.19;100.00
50123;BME280;36021;48.670;6.184;2022-11-15T13:10:37;98005.84;;;15.25;100.00
50123;BME280;36021;48.670;6.184;2022-11-15T13:13:07;98005.66;;;15.18;100.00
50123;BME280;36021;48.670;6.184;2022-11-15T13:15:52;98005.06;;;15.25;100.00
50123;BME280;36021;48.670;6.184;2022-11-15T13:18:39;97995.25;;;15.15;100.00
50123;BME280;36021;48.670;6.184;2022-11-15T13:21:19;98000.78;;;15.15;100.00
50123;BME280;36021;48.670;6.184;2022-11-15T13:24:04;97992.00;;;15.13;100.00
50123;BME280;36021;48.670;6.184;2022-11-15T13:26:30;97983.75;;;15.29;100.00
50123;BME280;36021;48.670;6.184;2022-11-15T13:28:56;97982.06;;;15.24;100.00
50123;BME280;36021;48.670;6.184;2022-11-15T13:31:31;97971.84;;;15.28;100.00
50123;BME280;36021;48.670;6.184;2022-11-15T13:34:12;97975.19;;;15.34;100.00
50123;BME280;36021;48.670;6.184;2022-11-15T13:36:39;97972.25;;;15.15;100.00
50123;BME280;36021;48.670;6.184;2022-11-15T13:39:13;97965.44;;;15.00;100.00
50123;BME280;36021;48.670;6.184;2022-11-15T13:41:48;97966.59;;;14.99;100.00
50123;BME280;36021;48.670;6.184;2022-11-15T13:44:23;97957.84;;;14.85;100.00
50123;BME280;36021;48.670;6.184;2022-11-15T13:47:01;97956.69;;;14.74;100.00
50123;BME280;36021;48.670;6.184;2022-11-15T13:49:30;97946.97;;;14.92;100.00
50123;BME280;36021;48.670;6.184;2022-11-15T13:51:56;97950.91;;;14.91;100.00
50123;BME280;36021;48.670;6.184;2022-11-15T13:54:31;97946.16;;;14.91;100.00
50123;BME280;36021;48.670;6.184;2022-11-15T13:57:03;97945.81;;;14.81;100.00
50123;BME280;36021;48.670;6.184;2022-11-15T13:59:33;97945.81;;;14.81;100.00
50123;BME280;36021;48.670;6.184;2022-11-15T14:02:03;97948.16;;;14.79;100.00
50123;BME280;36021;48.670;6.184;2022-11-15T14:04:38;97935.53;;;14.69;100.00
50123;BME280;36021;48.670;6.184;2022-11-15T14:07:16;97945.06;;;14.56;100.00
50123;BME280;36021;48.670;6.184;2022-11-15T14:09:43;97941.09;;;14.57;100.00
50123;BME280;36021;48.670;6.184;2022-11-15T14:12:30;97937.19;;;14.58;100.00
50123;BME280;36021;48.670;6.184;2022-11-15T14:14:58;97937.75;;;14.51;100.00
50123;BME280;36021;48.670;6.184;2022-11-15T14:19:57;97932.09;;;14.48;100.00
50123;BME280;36021;48.670;6.184;2022-11-15T14:22:28;97927.38;;;14.48;100.00
50123;BME280;36021;48.670;6.184;2022-11-15T14:25:30;97923.66;;;14.44;100.00
50123;BME280;36021;48.670;6.184;2022-11-15T14:30:38;97919.06;;;14.36;100.00
50123;BME280;36021;48.670;6.184;2022-11-15T14:33:24;97922.63;;;14.37;100.00
50123;BME280;36021;48.670;6.184;2022-11-15T14:35:51;97917.63;;;14.30;100.00
50123;BME280;36021;48.670;6.184;2022-11-15T14:38:18;97907.72;;;14.29;100.00
50123;BME280;36021;48.670;6.184;2022-11-15T14:40:44;97917.44;;;14.35;100.00
50123;BME280;36021;48.670;6.184;2022-11-15T14:43:10;97918.25;;;14.36;100.00
50123;BME280;36021;48.670;6.184;2022-11-15T14:45:37;97904.72;;;14.34;100.00
50123;BME280;36021;48.670;6.184;2022-11-15T14:48:03;97903.75;;;14.30;100.00
50123;BME280;36021;48.670;6.184;2022-11-15T14:50:28;97901.22;;;14.25;100.00
50123;BME280;36021;48.670;6.184;2022-11-15T14:52:54;97909.56;;;14.25;100.00
50123;BME280;36021;48.670;6.184;2022-11-15T14:55:28;97911.19;;;14.26;100.00
50123;BME280;36021;48.670;6.184;2022-11-15T14:57:55;97904.00;;;14.25;100.00
50123;BME280;36021;48.670;6.184;2022-11-15T15:00:22;97903.56;;;14.23;100.00
50123;BME280;36021;48.670;6.184;2022-11-15T15:02:48;97898.09;;;14.15;100.00
50123;BME280;36021;48.670;6.184;2022-11-15T15:05:21;97906.28;;;14.11;100.00
50123;BME280;36021;48.670;6.184;2022-11-15T15:07:49;97903.31;;;14.16;100.00
50123;BME280;36021;48.670;6.184;2022-11-15T15:10:16;97896.72;;;14.08;100.00
50123;BME280;36021;48.670;6.184;2022-11-15T15:12:42;97906.41;;;14.02;100.00
50123;BME280;36021;48.670;6.184;2022-11-15T15:15:19;97901.78;;;13.94;100.00
50123;BME280;36021;48.670;6.184;2022-11-15T15:17:47;97898.19;;;13.94;100.00
50123;BME280;36021;48.670;6.184;2022-11-15T15:20:12;97893.69;;;13.89;100.00
50123;BME280;36021;48.670;6.184;2022-11-15T15:22:38;97890.34;;;13.84;100.00
50123;BME280;36021;48.670;6.184;2022-11-15T15:25:34;97877.41;;;13.76;100.00
50123;BME280;36021;48.670;6.184;2022-11-15T15:28:00;97877.16;;;13.69;100.00
50123;BME280;36021;48.670;6.184;2022-11-15T15:30:29;97876.91;;;13.62;100.00
50123;BME280;36021;48.670;6.184;2022-11-15T15:32:55;97874.63;;;13.64;100.00
50123;BME280;36021;48.670;6.184;2022-11-15T15:35:22;97869.28;;;13.58;100.00
50123;BME280;36021;48.670;6.184;2022-11-15T15:37:48;97873.22;;;13.57;100.00
50123;BME280;36021;48.670;6.184;2022-11-15T15:40:22;97878.06;;;13.61;100.00
50123;BME280;36021;48.670;6.184;2022-11-15T15:42:48;97870.09;;;13.59;100.00
50123;BME280;36021;48.670;6.184;2022-11-15T15:45:15;97882.31;;;13.58;100.00
50123;BME280;36021;48.670;6.184;2022-11-15T15:47:43;97881.53;;;13.57;100.00
50123;BME280;36021;48.670;6.184;2022-11-15T15:50:31;97882.22;;;13.54;100.00
50123;BME280;36021;48.670;6.184;2022-11-15T15:52:59;97885.44;;;13.56;100.00
50123;BME280;36021;48.670;6.184;2022-11-15T15:55:25;97893.94;;;13.51;100.00
50123;BME280;36021;48.670;6.184;2022-11-15T15:57:51;97890.97;;;13.56;100.00